createdAt,value
2022-11-24T00:09:15.469Z,4.90
2022-11-24T00:11:45.644Z,4.80
2022-11-24T00:19:17.016Z,4.80
2022-11-24T00:21:48.065Z,4.80
2022-11-24T00:24:16.848Z,4.70
2022-11-24T00:26:47.017Z,4.80
2022-11-24T00:31:44.576Z,4.80
2022-11-24T00:34:15.596Z,4.80
2022-11-24T00:39:14.917Z,4.80
2022-11-24T00:41:44.414Z,4.90
2022-11-24T00:44:14.877Z,4.80
2022-11-24T00:46:43.490Z,4.80
2022-11-24T00:49:12.335Z,4.80
2022-11-24T00:51:40.892Z,4.70
2022-11-24T00:56:39.234Z,4.60
2022-11-24T01:01:38.515Z,4.60
2022-11-24T01:09:05.871Z,4.70
2022-11-24T01:11:50.919Z,4.70
2022-11-24T01:16:50.675Z,4.80
2022-11-24T01:19:19.357Z,4.80
2022-11-24T01:21:48.708Z,4.90
2022-11-24T01:24:17.571Z,4.90
2022-11-24T01:29:15.398Z,4.90
2022-11-24T01:34:14.242Z,5.00
2022-11-24T01:36:42.769Z,4.90
2022-11-24T01:39:11.322Z,5.00
2022-11-24T01:44:24.135Z,5.00
2022-11-24T01:46:58.613Z,5.00
2022-11-24T01:49:39.136Z,5.10
2022-11-24T01:52:13.285Z,5.10
2022-11-24T01:54:46.039Z,5.10
2022-11-24T01:57:19.873Z,5.10
2022-11-24T01:59:50.929Z,5.10
2022-11-24T02:04:51.214Z,5.10
2022-11-24T02:07:20.422Z,5.20
2022-11-24T02:09:53.334Z,5.20
2022-11-24T02:14:52.857Z,5.20
2022-11-24T02:17:21.393Z,5.20
2022-11-24T02:19:59.295Z,5.20
2022-11-24T02:22:37.540Z,5.20
2022-11-24T02:25:15.304Z,5.30
2022-11-24T02:27:52.273Z,5.30
2022-11-24T02:30:22.716Z,5.30
2022-11-24T02:32:52.862Z,5.30
2022-11-24T02:35:21.653Z,5.30
2022-11-24T02:37:50.228Z,5.20
2022-11-24T02:40:25.552Z,5.30
2022-11-24T02:42:59.531Z,5.30
2022-11-24T02:45:29.380Z,5.40
2022-11-24T02:47:58.137Z,5.40
2022-11-24T02:50:26.866Z,5.40
2022-11-24T02:52:55.657Z,5.40
2022-11-24T02:55:24.939Z,5.30
2022-11-24T02:57:54.953Z,5.30
2022-11-24T03:07:50.441Z,5.20
2022-11-24T03:10:19.171Z,5.20
2022-11-24T03:12:47.740Z,5.20
2022-11-24T03:15:18.042Z,5.10
2022-11-24T03:17:46.800Z,5.20
2022-11-24T03:20:15.381Z,5.20
2022-11-24T03:22:43.919Z,5.20
2022-11-24T03:25:12.528Z,5.10
2022-11-24T03:27:41.317Z,5.00
2022-11-24T03:30:12.070Z,5.00
2022-11-24T03:32:42.798Z,5.00
2022-11-24T03:37:40.751Z,5.00
2022-11-24T03:40:10.872Z,5.00
2022-11-24T03:45:30.318Z,5.10
2022-11-24T03:47:59.636Z,5.20
2022-11-24T03:57:55.271Z,5.10
2022-11-24T04:02:53.107Z,5.20
2022-11-24T04:05:23.119Z,5.10
2022-11-24T04:10:20.970Z,5.10
2022-11-24T04:12:48.702Z,5.30
2022-11-24T04:15:20.073Z,5.20
2022-11-24T04:17:51.339Z,5.20
2022-11-24T04:22:52.033Z,5.20
2022-11-24T04:25:20.856Z,5.20
2022-11-24T04:27:53.862Z,5.30
2022-11-24T04:30:24.071Z,5.30
2022-11-24T04:35:21.891Z,5.30
2022-11-24T04:37:52.063Z,5.30
2022-11-24T04:40:21.523Z,5.30
2022-11-24T04:42:58.397Z,5.30
2022-11-24T04:50:24.738Z,5.20
2022-11-24T04:52:54.874Z,5.20
2022-11-24T04:57:52.245Z,5.20
2022-11-24T05:00:22.209Z,5.30
2022-11-24T05:05:19.961Z,5.30
2022-11-24T05:07:48.523Z,5.30
2022-11-24T05:10:37.597Z,5.30
2022-11-24T05:13:08.710Z,5.30
2022-11-24T05:15:39.241Z,5.30
2022-11-24T05:20:37.199Z,5.30
2022-11-24T05:23:07.330Z,5.40
2022-11-24T05:25:37.625Z,5.40
2022-11-24T05:28:09.119Z,5.40
2022-11-24T05:30:39.927Z,5.30
2022-11-24T05:35:38.332Z,5.40
2022-11-24T05:40:37.660Z,5.40
2022-11-24T05:45:35.213Z,5.40
2022-11-24T05:48:07.784Z,5.40
2022-11-24T05:50:36.932Z,5.40
2022-11-24T05:53:06.985Z,5.40
2022-11-24T05:55:38.073Z,5.40
2022-11-24T05:58:09.385Z,5.40
2022-11-24T06:00:38.313Z,5.40
2022-11-24T06:05:36.309Z,5.40
2022-11-24T06:10:33.855Z,5.40
2022-11-24T06:13:07.987Z,5.40
2022-11-24T06:15:37.861Z,5.40
2022-11-24T06:18:06.898Z,5.40
2022-11-24T06:25:33.344Z,5.20
2022-11-24T06:28:06.936Z,5.20
2022-11-24T06:30:35.559Z,5.20
2022-11-24T06:33:04.109Z,5.30
2022-11-24T06:40:30.590Z,5.20
2022-11-24T06:42:59.182Z,5.20
2022-11-24T06:45:29.218Z,5.10
2022-11-24T06:47:58.389Z,5.00
2022-11-24T06:53:02.194Z,4.90
2022-11-24T06:55:30.727Z,4.80
2022-11-24T06:57:59.487Z,4.80
2022-11-24T07:00:32.181Z,4.70
2022-11-24T07:08:01.641Z,4.60
2022-11-24T07:12:59.066Z,4.60
2022-11-24T07:15:30.715Z,4.70
2022-11-24T07:17:59.286Z,4.60
2022-11-24T07:22:58.220Z,4.80
2022-11-24T07:25:26.993Z,4.90
2022-11-24T07:27:58.911Z,4.90
2022-11-24T07:30:29.476Z,5.00
2022-11-24T07:33:00.926Z,5.10
2022-11-24T07:35:30.122Z,5.10
2022-11-24T07:37:59.645Z,5.10
2022-11-24T07:40:28.848Z,5.20
2022-11-24T07:42:57.459Z,5.10
2022-11-24T07:45:26.410Z,5.20
2022-11-24T07:47:56.444Z,5.20
2022-11-24T07:50:25.979Z,5.20
2022-11-24T07:52:54.583Z,5.10
2022-11-24T07:55:23.123Z,5.20
2022-11-24T07:57:51.660Z,5.20
2022-11-24T08:00:21.410Z,5.20
2022-11-24T08:02:50.339Z,5.20
2022-11-24T08:05:20.452Z,5.20
2022-11-24T08:07:49.348Z,6.60
2022-11-24T08:10:19.090Z,5.30
2022-11-24T08:12:47.840Z,5.20
2022-11-24T08:15:16.672Z,5.10
2022-11-24T08:17:45.204Z,5.10
2022-11-24T08:20:14.969Z,5.10
2022-11-24T08:22:44.975Z,5.10
2022-11-24T08:25:15.580Z,5.10
2022-11-24T08:27:44.359Z,5.10
2022-11-24T08:30:14.833Z,5.20
2022-11-24T08:32:43.458Z,5.20
2022-11-24T08:35:14.255Z,5.20
2022-11-24T08:37:44.469Z,5.20
2022-11-24T08:40:14.411Z,5.20
2022-11-24T08:42:43.014Z,5.30
2022-11-24T08:45:20.949Z,5.30
2022-11-24T08:47:54.819Z,5.30
2022-11-24T08:50:24.008Z,5.40
2022-11-24T08:52:55.256Z,5.50
2022-11-24T08:55:23.993Z,5.60
2022-11-24T08:57:52.794Z,5.60
2022-11-24T09:00:23.877Z,5.70
2022-11-24T09:02:57.878Z,5.80
2022-11-24T09:05:51.213Z,5.80
2022-11-24T09:08:16.858Z,5.90
2022-11-24T09:10:45.618Z,5.90
2022-11-24T09:13:14.437Z,6.00
2022-11-24T09:15:43.058Z,5.90
2022-11-24T09:18:11.616Z,5.90
2022-11-24T09:20:40.739Z,5.90
2022-11-24T09:23:09.476Z,5.90
2022-11-24T09:25:39.408Z,6.00
2022-11-24T09:28:07.957Z,6.00
2022-11-24T09:30:36.822Z,5.90
2022-11-24T09:33:05.549Z,5.90
2022-11-24T09:35:34.098Z,5.80
2022-11-24T09:38:02.653Z,5.90
2022-11-24T09:40:31.793Z,5.80
2022-11-24T09:43:08.891Z,5.80
2022-11-24T09:46:05.180Z,5.80
2022-11-24T09:48:40.161Z,6.00
2022-11-24T09:51:14.162Z,6.20
2022-11-24T09:53:46.016Z,6.20
2022-11-24T09:56:22.020Z,6.30
2022-11-24T09:58:55.774Z,7.20
2022-11-24T10:01:30.868Z,6.40
2022-11-24T10:04:05.931Z,6.40
2022-11-24T10:06:42.229Z,6.50
2022-11-24T10:09:28.377Z,6.50
2022-11-24T10:12:13.309Z,6.50
2022-11-24T10:15:19.549Z,6.50
2022-11-24T10:18:16.489Z,6.40
2022-11-24T10:20:56.028Z,6.50
2022-11-24T10:23:43.835Z,6.50
2022-11-24T10:26:34.677Z,6.40
2022-11-24T10:29:15.332Z,6.40
2022-11-24T10:31:47.251Z,6.40
2022-11-24T10:34:20.097Z,6.40
2022-11-24T10:36:59.019Z,6.50
2022-11-24T10:39:35.692Z,6.50
2022-11-24T10:42:14.312Z,6.40
2022-11-24T10:44:44.352Z,6.50
2022-11-24T10:47:23.066Z,6.60
2022-11-24T10:49:59.118Z,6.70
2022-11-24T10:52:31.074Z,6.70
2022-11-24T10:55:01.669Z,6.70
2022-11-24T10:57:35.092Z,6.70
2022-11-24T11:00:31.553Z,6.70
2022-11-24T11:03:19.554Z,6.60
2022-11-24T11:05:53.061Z,6.60
2022-11-24T11:08:28.999Z,6.80
2022-11-24T11:11:20.251Z,6.90
2022-11-24T11:14:01.479Z,6.90
2022-11-24T11:16:37.554Z,6.70
2022-11-24T11:19:55.394Z,6.70
2022-11-24T11:22:28.967Z,6.90
2022-11-24T11:25:20.577Z,6.90
2022-11-24T11:27:49.727Z,6.70
2022-11-24T11:36:16.098Z,6.90
2022-11-24T11:38:46.350Z,6.90
2022-11-24T11:41:23.528Z,6.80
2022-11-24T11:44:07.061Z,6.60
2022-11-24T11:46:35.894Z,6.50
2022-11-24T11:49:04.814Z,6.60
2022-11-24T11:51:49.471Z,6.70
2022-11-24T11:54:30.642Z,6.70
2022-11-24T11:57:09.602Z,6.70
2022-11-24T12:00:00.294Z,6.60
2022-11-24T12:03:12.518Z,6.60
2022-11-24T12:05:55.334Z,6.40
2022-11-24T12:09:11.490Z,6.30
2022-11-24T12:11:37.947Z,6.20
2022-11-24T12:14:18.737Z,6.10
2022-11-24T12:16:59.342Z,6.00
2022-11-24T12:19:52.580Z,6.00
2022-11-24T12:22:35.262Z,6.00
2022-11-24T12:25:24.344Z,5.90
2022-11-24T12:28:07.764Z,5.90
2022-11-24T12:30:44.940Z,5.80
2022-11-24T12:33:50.327Z,5.90
2022-11-24T12:36:43.099Z,5.90
2022-11-24T12:39:26.654Z,6.30
2022-11-24T12:42:10.110Z,6.50
2022-11-24T12:45:07.306Z,6.50
2022-11-24T12:47:50.814Z,6.60
2022-11-24T12:50:22.272Z,6.60
2022-11-24T12:53:00.835Z,6.70
2022-11-24T12:55:32.326Z,6.70
2022-11-24T12:58:11.658Z,6.60
2022-11-24T13:00:54.907Z,6.60
2022-11-24T13:03:37.440Z,6.60
2022-11-24T13:06:14.666Z,6.60
2022-11-24T13:08:43.397Z,6.60
2022-11-24T13:11:45.623Z,6.50
2022-11-24T13:14:19.934Z,6.60
2022-11-24T13:19:43.846Z,6.60
2022-11-24T13:22:19.789Z,6.60
2022-11-24T13:25:14.907Z,6.60
2022-11-24T13:27:47.262Z,6.60
2022-11-24T13:31:09.707Z,6.50
2022-11-24T13:33:43.265Z,6.40
2022-11-24T13:36:54.290Z,6.40
2022-11-24T13:39:23.497Z,6.50
2022-11-24T13:42:10.548Z,6.60
2022-11-24T13:45:00.386Z,6.70
2022-11-24T13:47:43.161Z,6.80
2022-11-24T13:50:58.084Z,6.80
2022-11-24T13:53:33.864Z,6.70
2022-11-24T13:56:10.224Z,6.60
2022-11-24T13:58:40.383Z,6.60
2022-11-24T14:01:20.571Z,6.60
2022-11-24T14:07:02.429Z,6.50
2022-11-24T14:09:39.125Z,7.20
2022-11-24T14:12:15.772Z,6.00
2022-11-24T14:14:46.795Z,6.00
2022-11-24T14:17:23.352Z,5.90
2022-11-24T14:19:55.194Z,5.80
2022-11-24T14:22:27.076Z,5.80
2022-11-24T14:24:57.748Z,5.80
2022-11-24T14:27:32.405Z,5.90
2022-11-24T14:30:03.695Z,5.90
2022-11-24T14:32:32.363Z,5.90
2022-11-24T14:35:02.687Z,6.00
2022-11-24T14:37:32.069Z,6.10
2022-11-24T14:40:00.756Z,6.20
2022-11-24T14:42:29.867Z,6.10
2022-11-24T14:45:00.697Z,6.20
2022-11-24T14:47:32.626Z,6.20
2022-11-24T14:50:14.011Z,6.10
2022-11-24T14:52:47.480Z,6.10
2022-11-24T14:55:28.860Z,6.10
2022-11-24T14:57:58.085Z,6.20
2022-11-24T15:00:32.692Z,6.00
2022-11-24T15:03:17.430Z,6.00
2022-11-24T15:05:56.046Z,6.00
2022-11-24T15:08:25.863Z,6.10
2022-11-24T15:11:00.660Z,5.90
2022-11-24T15:13:31.025Z,5.60
2022-11-24T15:16:04.010Z,5.60
2022-11-24T15:18:42.181Z,5.70
2022-11-24T15:21:18.909Z,5.50
2022-11-24T15:24:08.507Z,5.40
2022-11-24T15:26:41.963Z,5.40
2022-11-24T15:29:11.865Z,5.30
2022-11-24T15:31:41.302Z,5.30
2022-11-24T15:34:14.208Z,5.30
2022-11-24T15:36:44.383Z,5.20
2022-11-24T15:39:12.957Z,5.20
2022-11-24T15:41:43.162Z,5.20
2022-11-24T15:44:12.108Z,5.10
2022-11-24T15:46:40.716Z,4.80
2022-11-24T15:49:09.278Z,4.70
2022-11-24T15:51:48.697Z,4.50
2022-11-24T15:54:19.206Z,4.50
2022-11-24T15:56:48.031Z,4.40
2022-11-24T15:59:20.503Z,4.20
2022-11-24T16:01:51.034Z,4.20
2022-11-24T16:04:20.058Z,4.20
2022-11-24T16:06:50.004Z,4.30
2022-11-24T16:09:18.598Z,4.20
2022-11-24T16:11:47.131Z,3.90
2022-11-24T16:17:05.215Z,3.30
2022-11-24T16:19:37.394Z,3.20
2022-11-24T16:22:11.491Z,3.20
2022-11-24T16:24:41.036Z,3.30
2022-11-24T16:29:38.789Z,3.40
2022-11-24T16:32:07.958Z,3.20
2022-11-24T16:34:36.883Z,3.00
2022-11-24T16:37:05.618Z,2.90
2022-11-24T16:39:35.906Z,2.90
2022-11-24T16:42:05.563Z,2.80
2022-11-24T16:44:35.160Z,2.90
2022-11-24T16:47:03.894Z,2.90
2022-11-24T16:49:32.528Z,2.90
2022-11-24T16:52:01.082Z,3.00
2022-11-24T16:54:29.855Z,3.00
2022-11-24T16:57:00.058Z,2.90
2022-11-24T16:59:28.625Z,2.90
2022-11-24T17:01:57.526Z,2.90
2022-11-24T17:04:26.560Z,2.90
2022-11-24T17:06:55.099Z,2.80
2022-11-24T17:09:23.610Z,2.80
2022-11-24T17:11:52.393Z,2.80
2022-11-24T17:14:22.402Z,2.80
2022-11-24T17:16:51.247Z,2.70
2022-11-24T17:19:20.227Z,2.70
2022-11-24T17:24:18.243Z,2.80
2022-11-24T17:29:18.164Z,2.80
2022-11-24T17:31:48.174Z,2.90
2022-11-24T17:34:17.042Z,2.70
2022-11-24T17:36:46.369Z,2.80
2022-11-24T17:39:15.304Z,2.70
2022-11-24T17:41:44.399Z,2.60
2022-11-24T17:44:13.006Z,2.60
2022-11-24T17:46:41.574Z,2.60
2022-11-24T17:49:13.432Z,2.60
2022-11-24T17:51:41.966Z,2.60
2022-11-24T17:54:39.304Z,2.60
2022-11-24T17:56:59.303Z,2.60
2022-11-24T17:59:28.083Z,2.70
2022-11-24T18:01:56.860Z,2.70
2022-11-24T18:04:27.039Z,2.70
2022-11-24T18:06:55.799Z,2.70
2022-11-24T18:09:24.528Z,2.60
2022-11-24T18:11:53.109Z,2.60
2022-11-24T18:14:21.663Z,2.60
2022-11-24T18:16:50.505Z,2.60
2022-11-24T18:19:19.070Z,2.70
2022-11-24T18:21:49.033Z,2.60
2022-11-24T18:24:22.697Z,2.60
2022-11-24T18:26:52.701Z,2.50
2022-11-24T18:29:22.229Z,2.50
2022-11-24T18:31:50.869Z,2.40
2022-11-24T18:34:19.686Z,2.60
2022-11-24T18:36:52.222Z,2.70
2022-11-24T18:41:49.684Z,2.70
2022-11-24T18:44:18.403Z,2.70
2022-11-24T18:49:15.801Z,2.70
2022-11-24T18:51:44.359Z,2.70
2022-11-24T18:54:14.271Z,2.70
2022-11-24T18:56:43.020Z,2.70
2022-11-24T18:59:11.601Z,2.70
2022-11-24T19:01:40.179Z,2.60
2022-11-24T19:04:08.814Z,2.60
2022-11-24T19:06:39.088Z,2.60
2022-11-24T19:09:10.515Z,2.50
2022-11-24T19:11:44.115Z,2.50
2022-11-24T19:14:16.166Z,2.50
2022-11-24T19:16:47.723Z,2.50
2022-11-24T19:19:17.480Z,2.20
2022-11-24T19:21:46.178Z,2.20
2022-11-24T19:24:15.000Z,2.30
2022-11-24T19:26:45.457Z,2.30
2022-11-24T19:29:14.239Z,2.20
2022-11-24T19:31:44.014Z,2.20
2022-11-24T19:34:13.170Z,2.20
2022-11-24T19:36:43.303Z,2.20
2022-11-24T19:39:16.127Z,2.10
2022-11-24T19:41:46.709Z,2.20
2022-11-24T19:44:15.674Z,2.20
2022-11-24T19:46:44.455Z,2.10
2022-11-24T19:49:13.138Z,2.10
2022-11-24T19:51:41.695Z,2.10
2022-11-24T19:54:14.019Z,2.00
2022-11-24T19:56:42.576Z,2.00
2022-11-24T19:59:15.596Z,2.10
2022-11-24T20:01:44.259Z,2.00
2022-11-24T20:04:15.779Z,2.00
2022-11-24T20:06:46.726Z,1.90
2022-11-24T20:09:17.612Z,1.90
2022-11-24T20:11:46.977Z,1.90
2022-11-24T20:14:19.312Z,1.90
2022-11-24T20:16:48.001Z,1.90
2022-11-24T20:19:19.251Z,1.80
2022-11-24T20:21:50.015Z,1.80
2022-11-24T20:24:21.603Z,1.80
2022-11-24T20:26:53.000Z,1.70
2022-11-24T20:29:23.487Z,1.60
2022-11-24T20:31:54.783Z,1.70
2022-11-24T20:34:24.691Z,1.70
2022-11-24T20:36:53.980Z,1.60
2022-11-24T20:39:26.427Z,1.60
2022-11-24T20:41:56.051Z,1.60
2022-11-24T20:44:28.186Z,1.60
2022-11-24T20:46:59.793Z,1.60
2022-11-24T20:49:29.655Z,1.60
2022-11-24T20:51:58.244Z,1.60
2022-11-24T20:54:27.085Z,1.70
2022-11-24T20:56:56.061Z,1.70
2022-11-24T20:59:27.153Z,1.60
2022-11-24T21:01:57.156Z,1.60
2022-11-24T21:04:28.012Z,1.60
2022-11-24T21:06:56.653Z,1.60
2022-11-24T21:09:27.497Z,1.60
2022-11-24T21:11:56.063Z,1.60
2022-11-24T21:14:29.015Z,1.50
2022-11-24T21:16:59.767Z,1.50
2022-11-24T21:19:28.935Z,1.40
2022-11-24T21:21:57.681Z,1.40
2022-11-24T21:24:26.427Z,1.40
2022-11-24T21:26:55.170Z,1.40
2022-11-24T21:31:54.566Z,1.30
2022-11-24T21:34:23.363Z,1.40
2022-11-24T21:36:52.176Z,1.40
2022-11-24T21:39:20.768Z,1.40
2022-11-24T21:41:49.363Z,1.30
2022-11-24T21:44:18.085Z,1.30
2022-11-24T21:46:54.442Z,1.30
2022-11-24T21:49:24.790Z,1.30
2022-11-24T21:51:55.959Z,1.30
2022-11-24T21:54:25.027Z,1.10
2022-11-24T21:56:55.895Z,1.10
2022-11-24T21:59:24.467Z,0.80
2022-11-24T22:01:54.522Z,0.70
2022-11-24T22:04:23.647Z,0.60
2022-11-24T22:06:54.200Z,0.60
2022-11-24T22:09:22.972Z,0.70
2022-11-24T22:11:52.686Z,0.70
2022-11-24T22:14:21.269Z,0.70
2022-11-24T22:16:50.159Z,0.70
2022-11-24T22:19:20.499Z,0.80
2022-11-24T22:21:49.059Z,0.90
2022-11-24T22:24:20.636Z,1.00
2022-11-24T22:29:20.659Z,1.00
2022-11-24T22:31:49.363Z,1.10
2022-11-24T22:34:19.400Z,1.10
2022-11-24T22:36:48.168Z,1.10
2022-11-24T22:39:16.812Z,1.20
2022-11-24T22:41:45.358Z,1.10
2022-11-24T22:44:13.905Z,1.20
2022-11-24T22:46:42.512Z,1.20
2022-11-24T22:49:11.637Z,1.20
2022-11-24T22:51:41.728Z,1.20
2022-11-24T22:54:14.214Z,1.20
2022-11-24T22:56:42.775Z,1.10
2022-11-24T23:01:40.364Z,1.10
2022-11-24T23:04:08.998Z,1.10
2022-11-24T23:06:38.345Z,1.10
2022-11-24T23:09:08.518Z,1.30
2022-11-24T23:11:40.568Z,1.20
2022-11-24T23:14:14.381Z,1.20
2022-11-24T23:16:43.902Z,1.20
2022-11-24T23:19:12.712Z,1.20
2022-11-24T23:21:41.329Z,1.20
2022-11-24T23:24:12.466Z,1.20
2022-11-24T23:26:42.299Z,1.20
2022-11-24T23:29:12.628Z,1.20
2022-11-24T23:31:41.285Z,1.20
2022-11-24T23:34:10.578Z,1.20
2022-11-24T23:36:39.160Z,1.20
2022-11-24T23:39:13.250Z,1.10
2022-11-24T23:41:42.221Z,1.10
2022-11-24T23:44:10.749Z,1.10
2022-11-24T23:46:39.323Z,1.20
2022-11-24T23:49:08.122Z,1.10
2022-11-24T23:51:36.737Z,1.10
2022-11-24T23:54:11.817Z,1.10
2022-11-24T23:56:40.656Z,1.20
2022-11-24T23:59:13.206Z,1.10
